createdAt,value
2022-08-07T00:01:44.355Z,24.98
2022-08-07T00:04:05.940Z,24.88
2022-08-07T00:06:34.024Z,24.87
2022-08-07T00:09:17.252Z,24.59
2022-08-07T00:11:56.134Z,24.64
2022-08-07T00:14:30.347Z,24.65
2022-08-07T00:16:58.898Z,24.76
2022-08-07T00:19:59.709Z,24.91
2022-08-07T00:22:24.848Z,24.88
2022-08-07T00:25:04.863Z,24.92
2022-08-07T00:27:51.947Z,25.03
2022-08-07T00:30:26.735Z,25.10
2022-08-07T00:32:59.966Z,25.03
2022-08-07T00:35:29.634Z,24.90
2022-08-07T00:37:58.734Z,24.76
2022-08-07T00:40:39.393Z,24.06
2022-08-07T00:43:58.926Z,24.08
2022-08-07T00:46:00.359Z,23.82
2022-08-07T00:48:32.190Z,23.92
2022-08-07T00:51:00.855Z,23.83
2022-08-07T00:53:39.338Z,23.49
2022-08-07T00:56:15.836Z,23.64
2022-08-07T00:58:43.948Z,23.64
2022-08-07T01:01:16.009Z,23.65
2022-08-07T01:03:56.150Z,23.65
2022-08-07T01:06:26.277Z,23.52
2022-08-07T01:08:56.191Z,23.46
2022-08-07T01:12:27.805Z,23.53
2022-08-07T01:14:15.468Z,23.48
2022-08-07T01:16:46.801Z,23.27
2022-08-07T01:19:19.139Z,23.22
2022-08-07T01:21:53.504Z,23.08
2022-08-07T01:24:27.729Z,23.20
2022-08-07T01:26:59.190Z,23.38
2022-08-07T01:29:33.945Z,23.24
2022-08-07T01:32:05.397Z,23.31
2022-08-07T01:34:33.907Z,23.36
2022-08-07T01:37:09.699Z,23.20
2022-08-07T01:39:40.876Z,22.99
2022-08-07T01:42:38.143Z,22.93
2022-08-07T01:45:09.749Z,22.98
2022-08-07T01:48:19.744Z,22.95
2022-08-07T01:50:32.322Z,23.06
2022-08-07T01:53:01.074Z,22.95
2022-08-07T01:55:34.610Z,23.03
2022-08-07T01:58:27.429Z,22.76
2022-08-07T02:01:09.452Z,22.88
2022-08-07T02:03:48.955Z,22.81
2022-08-07T02:06:32.138Z,22.70
2022-08-07T02:09:04.865Z,22.69
2022-08-07T02:12:02.690Z,22.73
2022-08-07T02:14:36.117Z,22.76
2022-08-07T02:17:13.233Z,22.91
2022-08-07T02:20:05.034Z,23.06
2022-08-07T02:22:38.353Z,23.03
2022-08-07T02:25:17.496Z,22.95
2022-08-07T02:27:55.746Z,22.71
2022-08-07T02:30:24.394Z,22.84
2022-08-07T02:33:04.026Z,23.03
2022-08-07T02:36:29.408Z,23.13
2022-08-07T02:38:32.314Z,22.94
2022-08-07T02:41:04.048Z,22.95
2022-08-07T02:43:35.368Z,22.81
2022-08-07T02:46:07.453Z,22.93
2022-08-07T02:48:36.678Z,22.71
2022-08-07T02:51:41.990Z,22.75
2022-08-07T02:54:09.308Z,22.87
2022-08-07T02:56:39.521Z,22.96
2022-08-07T02:59:10.221Z,22.93
2022-08-07T03:01:40.085Z,22.84
2022-08-07T03:04:13.994Z,22.94
2022-08-07T03:06:44.850Z,22.98
2022-08-07T03:09:14.765Z,22.99
2022-08-07T03:12:05.826Z,22.81
2022-08-07T03:14:37.202Z,22.95
2022-08-07T03:17:05.043Z,23.00
2022-08-07T03:19:36.913Z,22.79
2022-08-07T03:22:07.620Z,22.67
2022-08-07T03:24:47.046Z,22.84
2022-08-07T03:27:15.075Z,22.79
2022-08-07T03:30:01.478Z,22.76
2022-08-07T03:32:37.540Z,22.79
2022-08-07T03:35:17.413Z,22.88
2022-08-07T03:37:55.003Z,22.82
2022-08-07T03:40:35.966Z,22.96
2022-08-07T03:43:13.890Z,22.80
2022-08-07T03:45:47.622Z,22.82
2022-08-07T03:48:17.651Z,22.84
2022-08-07T03:50:56.234Z,22.95
2022-08-07T03:54:02.054Z,23.15
2022-08-07T03:56:32.696Z,23.11
2022-08-07T03:59:08.301Z,23.13
2022-08-07T04:01:46.397Z,23.16
2022-08-07T04:04:17.844Z,23.09
2022-08-07T04:06:51.672Z,22.78
2022-08-07T04:09:23.046Z,22.69
2022-08-07T04:12:26.521Z,22.66
2022-08-07T04:14:43.888Z,22.78
2022-08-07T04:17:21.301Z,22.94
2022-08-07T04:19:54.199Z,22.88
2022-08-07T04:22:27.661Z,22.81
2022-08-07T04:25:01.494Z,22.81
2022-08-07T04:27:35.452Z,22.87
2022-08-07T04:30:21.395Z,22.84
2022-08-07T04:33:01.353Z,22.63
2022-08-07T04:35:38.572Z,22.68
2022-08-07T04:38:11.539Z,22.63
2022-08-07T04:40:52.575Z,22.75
2022-08-07T04:44:11.783Z,22.76
2022-08-07T04:46:29.486Z,22.74
2022-08-07T04:49:17.832Z,22.69
2022-08-07T04:52:25.213Z,22.65
2022-08-07T04:58:15.791Z,22.68
2022-08-07T04:58:33.815Z,22.74
2022-08-07T05:01:18.912Z,22.86
2022-08-07T05:04:08.015Z,23.02
2022-08-07T05:06:51.156Z,23.09
2022-08-07T05:09:45.336Z,22.95
2022-08-07T05:12:26.534Z,22.51
2022-08-07T05:15:21.745Z,22.13
2022-08-07T05:18:06.155Z,21.90
2022-08-07T05:20:51.280Z,21.61
2022-08-07T05:23:30.177Z,21.58
2022-08-07T05:26:11.611Z,21.77
2022-08-07T05:28:49.953Z,21.55
2022-08-07T05:31:21.114Z,21.32
2022-08-07T05:34:04.811Z,21.32
2022-08-07T05:36:39.236Z,21.66
2022-08-07T05:40:06.066Z,21.57
2022-08-07T05:42:07.541Z,21.27
2022-08-07T05:44:46.437Z,20.96
2022-08-07T05:47:20.105Z,21.08
2022-08-07T05:49:51.480Z,21.20
2022-08-07T05:52:32.348Z,21.26
2022-08-07T05:55:10.870Z,21.31
2022-08-07T05:57:43.035Z,21.27
2022-08-07T06:00:16.580Z,21.33
2022-08-07T06:02:53.288Z,21.20
2022-08-07T06:05:25.894Z,21.15
2022-08-07T06:08:13.717Z,21.21
2022-08-07T06:10:51.137Z,21.07
2022-08-07T06:13:31.482Z,21.19
2022-08-07T06:16:08.771Z,21.39
2022-08-07T06:18:40.294Z,21.53
2022-08-07T06:22:11.798Z,21.60
2022-08-07T06:24:46.244Z,21.56
2022-08-07T06:26:48.176Z,21.49
2022-08-07T06:29:17.040Z,21.47
2022-08-07T06:31:50.313Z,21.52
2022-08-07T06:34:23.964Z,21.55
2022-08-07T06:37:02.646Z,21.52
2022-08-07T06:40:17.673Z,21.58
2022-08-07T06:42:33.180Z,21.60
2022-08-07T06:45:17.928Z,21.59
2022-08-07T06:47:58.422Z,21.60
2022-08-07T06:50:33.304Z,21.68
2022-08-07T06:53:04.577Z,21.70
2022-08-07T06:55:53.777Z,21.78
2022-08-07T06:58:27.485Z,21.84
2022-08-07T07:01:03.060Z,21.95
2022-08-07T07:03:49.048Z,21.96
2022-08-07T07:06:26.125Z,22.12
2022-08-07T07:08:55.107Z,22.18
2022-08-07T07:12:09.167Z,22.20
2022-08-07T07:14:13.993Z,22.22
2022-08-07T07:16:49.758Z,22.24
2022-08-07T07:19:55.653Z,21.76
2022-08-07T07:22:35.635Z,21.91
2022-08-07T07:25:02.810Z,21.83
2022-08-07T07:28:42.549Z,21.43
2022-08-07T07:31:12.773Z,21.66
2022-08-07T07:33:49.062Z,21.81
2022-08-07T07:36:25.297Z,22.02
2022-08-07T07:39:01.248Z,22.17
2022-08-07T07:41:30.951Z,22.27
2022-08-07T07:44:25.842Z,22.47
2022-08-07T07:47:02.206Z,22.61
2022-08-07T07:50:32.676Z,22.56
2022-08-07T07:52:32.772Z,22.59
2022-08-07T07:55:01.222Z,22.45
2022-08-07T07:57:50.231Z,22.47
2022-08-07T08:00:29.004Z,22.56
2022-08-07T08:03:05.752Z,22.60
2022-08-07T08:05:50.532Z,22.64
2022-08-07T08:08:34.372Z,22.75
2022-08-07T08:11:08.839Z,22.72
2022-08-07T08:13:53.371Z,22.81
2022-08-07T08:16:37.915Z,22.82
2022-08-07T08:19:17.719Z,22.89
2022-08-07T08:22:14.505Z,22.90
2022-08-07T08:25:18.643Z,22.84
2022-08-07T08:27:57.424Z,22.84
2022-08-07T08:30:31.962Z,23.07
2022-08-07T08:33:02.108Z,23.05
2022-08-07T08:35:39.504Z,23.03
2022-08-07T08:38:15.780Z,23.10
2022-08-07T08:41:05.387Z,23.13
2022-08-07T08:43:41.874Z,23.12
2022-08-07T08:46:17.041Z,23.12
2022-08-07T08:49:05.190Z,23.12
2022-08-07T08:51:49.527Z,23.12
2022-08-07T08:54:26.393Z,23.18
2022-08-07T08:56:54.704Z,23.25
2022-08-07T08:59:42.067Z,23.35
2022-08-07T09:02:36.617Z,23.29
2022-08-07T09:05:18.545Z,23.27
2022-08-07T09:07:57.968Z,23.27
2022-08-07T09:10:29.706Z,23.32
2022-08-07T09:13:03.554Z,23.32
2022-08-07T09:16:22.441Z,23.35
2022-08-07T09:18:47.291Z,23.43
2022-08-07T09:21:34.395Z,23.47
2022-08-07T09:24:34.081Z,23.56
2022-08-07T09:27:25.181Z,23.56
2022-08-07T09:30:07.987Z,23.62
2022-08-07T09:32:45.308Z,23.64
2022-08-07T09:36:01.292Z,23.64
2022-08-07T09:38:23.190Z,23.65
2022-08-07T09:40:50.465Z,23.74
2022-08-07T09:44:03.602Z,23.89
2022-08-07T09:47:52.677Z,23.92
2022-08-07T09:50:02.068Z,24.07
2022-08-07T09:52:34.197Z,24.09
2022-08-07T09:55:17.312Z,24.16
2022-08-07T09:58:15.234Z,24.20
2022-08-07T10:01:03.536Z,24.20
2022-08-07T10:04:05.570Z,24.14
2022-08-07T10:06:49.146Z,24.04
2022-08-07T10:09:42.564Z,24.15
2022-08-07T10:12:26.502Z,24.22
2022-08-07T10:15:18.783Z,24.30
2022-08-07T10:18:01.433Z,24.19
2022-08-07T10:20:50.353Z,24.26
2022-08-07T10:24:06.552Z,24.30
2022-08-07T10:26:42.591Z,24.40
2022-08-07T10:29:11.837Z,24.38
2022-08-07T10:32:02.640Z,24.38
2022-08-07T10:35:00.912Z,24.31
2022-08-07T10:38:00.120Z,24.49
2022-08-07T10:44:33.823Z,24.85
2022-08-07T10:47:53.339Z,24.88
2022-08-07T10:50:26.127Z,24.97
2022-08-07T10:53:12.601Z,24.97
2022-08-07T10:55:58.257Z,25.05
2022-08-07T10:58:46.046Z,25.14
2022-08-07T11:01:23.947Z,25.18
2022-08-07T11:04:05.350Z,25.31
2022-08-07T11:06:54.230Z,25.36
2022-08-07T11:10:08.798Z,25.48
2022-08-07T11:12:32.176Z,25.62
2022-08-07T11:15:02.686Z,25.38
2022-08-07T11:17:45.861Z,25.55
2022-08-07T11:20:24.899Z,25.63
2022-08-07T11:23:26.224Z,25.75
2022-08-07T11:26:13.144Z,25.89
2022-08-07T11:29:02.046Z,25.99
2022-08-07T11:31:45.087Z,25.96
2022-08-07T11:34:31.418Z,25.91
2022-08-07T11:37:02.421Z,26.06
2022-08-07T11:40:00.372Z,26.19
2022-08-07T11:42:47.408Z,26.20
2022-08-07T11:45:23.940Z,26.39
2022-08-07T11:48:40.635Z,26.41
2022-08-07T11:51:41.222Z,26.37
2022-08-07T11:54:10.356Z,26.39
2022-08-07T11:56:56.950Z,26.36
2022-08-07T12:00:12.561Z,26.20
2022-08-07T12:02:20.875Z,26.19
2022-08-07T12:05:41.113Z,26.34
2022-08-07T12:08:25.772Z,26.60
2022-08-07T12:11:08.435Z,26.70
2022-08-07T12:13:52.237Z,26.96
2022-08-07T12:16:30.119Z,27.00
2022-08-07T12:19:22.194Z,26.99
2022-08-07T12:22:37.425Z,27.20
2022-08-07T12:26:22.096Z,27.28
2022-08-07T12:28:11.364Z,27.43
2022-08-07T12:30:41.278Z,27.41
2022-08-07T12:33:23.518Z,27.33
2022-08-07T12:35:59.038Z,27.31
2022-08-07T12:38:42.900Z,27.47
2022-08-07T12:41:11.685Z,27.60
2022-08-07T12:44:02.451Z,27.54
2022-08-07T12:46:40.242Z,27.48
2022-08-07T12:49:48.532Z,27.39
2022-08-07T12:52:18.219Z,27.33
2022-08-07T12:54:54.615Z,27.43
2022-08-07T12:57:25.779Z,27.38
2022-08-07T12:59:59.485Z,27.40
2022-08-07T13:02:49.496Z,27.37
2022-08-07T13:06:04.013Z,27.32
2022-08-07T13:08:23.439Z,27.36
2022-08-07T13:10:55.960Z,27.39
2022-08-07T13:13:48.717Z,27.50
2022-08-07T13:16:17.582Z,27.55
2022-08-07T13:19:00.937Z,27.62
2022-08-07T13:21:57.433Z,27.76
2022-08-07T13:24:34.205Z,27.61
2022-08-07T13:27:12.735Z,27.64
2022-08-07T13:29:52.617Z,27.73
2022-08-07T13:32:46.057Z,27.76
2022-08-07T13:36:00.888Z,27.74
2022-08-07T13:38:24.549Z,27.81
2022-08-07T13:41:02.897Z,27.91
2022-08-07T13:43:34.449Z,27.92
2022-08-07T13:46:11.104Z,27.85
2022-08-07T13:48:59.406Z,27.64
2022-08-07T13:52:05.454Z,27.78
2022-08-07T13:54:16.429Z,27.78
2022-08-07T13:56:55.828Z,27.76
2022-08-07T13:59:27.618Z,27.78
2022-08-07T14:02:10.648Z,27.92
2022-08-07T14:04:50.329Z,27.91
2022-08-07T14:07:27.810Z,27.98
2022-08-07T14:10:02.571Z,28.03
2022-08-07T14:12:54.939Z,27.91
2022-08-07T14:15:32.018Z,27.95
2022-08-07T14:18:24.467Z,27.93
2022-08-07T14:21:08.036Z,27.95
2022-08-07T14:24:00.303Z,27.79
2022-08-07T14:26:32.896Z,27.91
2022-08-07T14:29:08.606Z,27.98
2022-08-07T14:31:56.084Z,27.90
2022-08-07T14:34:29.559Z,27.90
2022-08-07T14:36:59.438Z,27.95
2022-08-07T14:40:17.024Z,27.95
2022-08-07T14:42:23.313Z,28.02
2022-08-07T14:44:59.554Z,28.08
2022-08-07T14:47:31.567Z,28.11
2022-08-07T14:50:05.149Z,28.10
2022-08-07T14:52:34.212Z,28.00
2022-08-07T14:55:03.125Z,28.13
2022-08-07T15:03:18.821Z,28.01
2022-08-07T15:05:54.148Z,28.05
2022-08-07T15:08:33.864Z,28.02
2022-08-07T15:11:09.967Z,28.02
2022-08-07T15:14:01.223Z,28.08
2022-08-07T15:16:40.253Z,28.03
2022-08-07T15:20:30.904Z,28.02
2022-08-07T15:25:18.536Z,28.31
2022-08-07T15:31:04.517Z,28.16
2022-08-07T15:33:33.564Z,28.13
2022-08-07T15:36:05.387Z,28.16
2022-08-07T15:38:51.980Z,28.11
2022-08-07T15:42:43.862Z,28.29
2022-08-07T15:44:17.294Z,28.24
2022-08-07T15:46:51.726Z,28.13
2022-08-07T15:49:25.232Z,28.10
2022-08-07T15:54:26.485Z,28.16
2022-08-07T15:56:59.728Z,28.28
2022-08-07T15:59:39.972Z,28.27
2022-08-07T16:02:23.692Z,28.28
2022-08-07T16:04:55.643Z,28.23
2022-08-07T16:08:30.742Z,28.21
2022-08-07T16:10:16.745Z,28.17
2022-08-07T16:13:17.430Z,28.24
2022-08-07T16:15:57.903Z,28.17
2022-08-07T16:18:43.537Z,28.16
2022-08-07T16:22:01.226Z,28.14
2022-08-07T16:24:34.585Z,28.08
2022-08-07T16:27:18.667Z,28.14
2022-08-07T16:30:30.116Z,28.05
2022-08-07T16:34:02.601Z,27.99
2022-08-07T16:36:19.954Z,28.01
2022-08-07T16:39:01.458Z,28.02
2022-08-07T16:41:48.558Z,28.02
2022-08-07T16:45:14.161Z,27.99
2022-08-07T16:50:36.231Z,28.04
2022-08-07T16:53:20.611Z,27.93
2022-08-07T16:55:51.965Z,28.02
2022-08-07T16:58:33.681Z,27.94
2022-08-07T17:01:16.771Z,27.95
2022-08-07T17:03:59.864Z,27.89
2022-08-07T17:06:45.867Z,27.88
2022-08-07T17:10:07.354Z,27.90
2022-08-07T17:12:33.781Z,27.96
2022-08-07T17:15:16.004Z,27.87
2022-08-07T17:17:47.613Z,27.92
2022-08-07T17:20:30.914Z,27.95
2022-08-07T17:23:17.131Z,27.89
2022-08-07T17:26:23.298Z,27.90
2022-08-07T17:29:04.747Z,27.79
2022-08-07T17:31:35.071Z,27.76
2022-08-07T17:34:34.182Z,27.75
2022-08-07T17:37:09.617Z,27.67
2022-08-07T17:40:05.448Z,27.71
2022-08-07T17:42:35.803Z,27.67
2022-08-07T17:45:43.216Z,27.66
2022-08-07T17:48:12.799Z,27.60
2022-08-07T17:51:01.634Z,27.63
2022-08-07T17:53:59.998Z,27.62
2022-08-07T17:56:31.479Z,27.54
2022-08-07T17:59:03.539Z,27.49
2022-08-07T18:01:37.327Z,27.51
2022-08-07T18:04:08.086Z,27.50
2022-08-07T18:06:47.969Z,27.58
2022-08-07T18:09:48.333Z,27.54
2022-08-07T18:12:33.247Z,27.50
2022-08-07T18:15:01.541Z,27.46
2022-08-07T18:18:47.642Z,27.45
2022-08-07T18:21:11.507Z,27.44
2022-08-07T18:23:43.017Z,27.32
2022-08-07T18:26:14.898Z,27.33
2022-08-07T18:29:06.674Z,27.36
2022-08-07T18:32:12.771Z,27.39
2022-08-07T18:35:00.556Z,27.36
2022-08-07T18:38:58.645Z,27.20
2022-08-07T18:40:39.870Z,27.15
2022-08-07T18:43:37.203Z,27.10
2022-08-07T18:46:25.245Z,27.34
2022-08-07T18:50:31.057Z,27.27
2022-08-07T18:52:35.179Z,27.36
2022-08-07T18:55:40.938Z,27.12
2022-08-07T18:58:15.484Z,26.86
2022-08-07T19:00:53.705Z,26.77
2022-08-07T19:03:42.751Z,26.61
2022-08-07T19:06:17.141Z,26.53
2022-08-07T19:09:54.745Z,26.70
2022-08-07T19:12:17.946Z,26.56
2022-08-07T19:14:51.067Z,26.46
2022-08-07T19:17:58.854Z,26.27
2022-08-07T19:20:28.853Z,26.16
2022-08-07T19:23:01.992Z,26.06
2022-08-07T19:26:23.812Z,26.00
2022-08-07T19:30:57.198Z,25.92
2022-08-07T19:31:41.722Z,25.87
2022-08-07T19:34:14.557Z,25.82
2022-08-07T19:37:09.816Z,25.78
2022-08-07T19:39:57.810Z,25.83
2022-08-07T19:42:40.523Z,25.81
2022-08-07T19:46:09.242Z,25.78
2022-08-07T19:48:03.258Z,25.86
2022-08-07T19:50:44.241Z,25.89
2022-08-07T19:54:32.521Z,25.89
2022-08-07T19:56:06.649Z,25.93
2022-08-07T19:58:50.411Z,25.89
2022-08-07T20:01:21.587Z,25.88
2022-08-07T20:03:53.165Z,25.89
2022-08-07T20:06:28.501Z,25.87
2022-08-07T20:09:02.929Z,25.88
2022-08-07T20:12:21.957Z,25.91
2022-08-07T20:14:31.635Z,25.90
2022-08-07T20:17:00.232Z,25.93
2022-08-07T20:19:48.074Z,25.82
2022-08-07T20:22:29.053Z,25.85
2022-08-07T20:25:12.875Z,25.88
2022-08-07T20:27:54.367Z,25.82
2022-08-07T20:30:31.561Z,25.94
2022-08-07T20:33:00.162Z,25.90
2022-08-07T20:35:51.740Z,25.86
2022-08-07T20:38:22.263Z,25.90
2022-08-07T20:40:53.442Z,25.90
2022-08-07T20:43:25.302Z,25.73
2022-08-07T20:46:26.441Z,25.64
2022-08-07T20:49:53.936Z,25.62
2022-08-07T20:51:36.043Z,25.64
2022-08-07T20:54:11.985Z,25.69
2022-08-07T20:56:46.260Z,25.67
2022-08-07T21:00:05.365Z,25.63
2022-08-07T21:02:23.068Z,25.59
2022-08-07T21:04:54.947Z,25.58
2022-08-07T21:07:25.033Z,25.55
2022-08-07T21:10:00.448Z,25.54
2022-08-07T21:12:30.949Z,25.54
2022-08-07T21:14:59.355Z,25.48
2022-08-07T21:18:01.772Z,25.49
2022-08-07T21:20:29.599Z,25.48
2022-08-07T21:22:59.374Z,25.50
2022-08-07T21:25:44.623Z,25.44
2022-08-07T21:28:48.053Z,25.49
2022-08-07T21:31:24.852Z,25.47
2022-08-07T21:34:34.136Z,25.36
2022-08-07T21:37:09.458Z,25.25
2022-08-07T21:39:46.757Z,25.24
2022-08-07T21:42:49.303Z,25.20
2022-08-07T21:46:04.781Z,25.09
2022-08-07T21:48:27.616Z,24.99
2022-08-07T21:51:19.628Z,24.93
2022-08-07T21:53:54.977Z,24.87
2022-08-07T21:56:40.410Z,24.78
2022-08-07T21:59:26.000Z,24.67
2022-08-07T22:02:10.123Z,24.64
2022-08-07T22:04:51.199Z,24.63
2022-08-07T22:07:23.267Z,24.59
2022-08-07T22:10:05.255Z,24.54
2022-08-07T22:12:45.727Z,24.52
2022-08-07T22:16:43.937Z,24.44
2022-08-07T22:18:09.747Z,24.46
2022-08-07T22:20:40.506Z,24.43
2022-08-07T22:23:13.847Z,24.49
2022-08-07T22:25:57.909Z,24.63
2022-08-07T22:28:31.513Z,24.72
2022-08-07T22:31:06.795Z,24.72
2022-08-07T22:33:56.510Z,24.69
2022-08-07T22:36:46.483Z,24.71
2022-08-07T22:39:35.480Z,24.73
2022-08-07T22:42:25.963Z,24.71
2022-08-07T22:44:59.853Z,24.69
2022-08-07T22:47:52.283Z,24.79
2022-08-07T22:50:38.870Z,24.76
2022-08-07T22:53:19.142Z,24.87
2022-08-07T22:56:08.585Z,24.83
2022-08-07T22:58:37.687Z,24.77
2022-08-07T23:01:17.926Z,24.86
2022-08-07T23:03:58.257Z,24.69
2022-08-07T23:06:27.205Z,24.59
2022-08-07T23:10:04.823Z,24.52
2022-08-07T23:11:50.943Z,24.49
2022-08-07T23:14:29.430Z,24.48
2022-08-07T23:16:58.356Z,24.44
2022-08-07T23:20:03.695Z,24.50
2022-08-07T23:22:43.188Z,24.59
2022-08-07T23:25:32.997Z,24.65
2022-08-07T23:28:21.280Z,24.68
2022-08-07T23:31:42.682Z,24.67
2022-08-07T23:34:37.506Z,24.65
2022-08-07T23:37:25.467Z,24.65
2022-08-07T23:39:56.796Z,24.59
2022-08-07T23:42:30.448Z,24.49
2022-08-07T23:45:32.828Z,24.45
2022-08-07T23:48:30.254Z,24.31
2022-08-07T23:51:02.886Z,24.35
2022-08-07T23:53:54.033Z,24.42
2022-08-07T23:56:35.072Z,24.39
2022-08-07T23:59:10.429Z,24.44
